createdAt,value
2022-11-16T00:00:50.266Z,10.90
2022-11-16T00:03:17.487Z,10.90
2022-11-16T00:05:44.558Z,11.00
2022-11-16T00:08:11.338Z,11.00
2022-11-16T00:10:38.222Z,11.00
2022-11-16T00:13:05.145Z,11.00
2022-11-16T00:15:32.059Z,10.90
2022-11-16T00:17:58.885Z,10.90
2022-11-16T00:20:25.717Z,10.90
2022-11-16T00:22:52.469Z,10.90
2022-11-16T00:25:19.287Z,10.90
2022-11-16T00:27:46.154Z,10.90
2022-11-16T00:30:13.532Z,10.90
2022-11-16T00:32:40.271Z,10.90
2022-11-16T00:35:07.854Z,10.90
2022-11-16T00:37:34.639Z,10.90
2022-11-16T00:40:01.433Z,10.90
2022-11-16T00:42:28.247Z,10.90
2022-11-16T00:44:55.098Z,10.90
2022-11-16T00:47:22.459Z,10.80
2022-11-16T00:49:49.260Z,10.90
2022-11-16T00:52:15.979Z,10.90
2022-11-16T00:54:42.739Z,10.90
2022-11-16T00:57:09.522Z,10.90
2022-11-16T00:59:36.345Z,10.90
2022-11-16T01:02:03.330Z,10.90
2022-11-16T01:04:30.203Z,10.80
2022-11-16T01:06:57.091Z,10.80
2022-11-16T01:09:24.009Z,10.80
2022-11-16T01:12:08.788Z,10.80
2022-11-16T01:14:47.195Z,10.80
2022-11-16T01:17:14.816Z,10.80
2022-11-16T01:19:41.963Z,10.80
2022-11-16T01:22:09.250Z,10.80
2022-11-16T01:24:36.125Z,10.80
2022-11-16T01:27:03.030Z,10.70
2022-11-16T01:29:31.532Z,10.80
2022-11-16T01:31:58.378Z,10.80
2022-11-16T01:34:25.915Z,10.80
2022-11-16T01:36:52.728Z,10.80
2022-11-16T01:39:19.750Z,10.80
2022-11-16T01:41:47.358Z,10.80
2022-11-16T01:44:32.535Z,10.80
2022-11-16T01:47:06.507Z,10.80
2022-11-16T01:49:36.303Z,10.80
2022-11-16T01:52:14.537Z,10.80
2022-11-16T01:54:44.258Z,10.80
2022-11-16T01:57:16.365Z,10.80
2022-11-16T01:59:45.968Z,10.80
2022-11-16T02:02:13.089Z,10.80
2022-11-16T02:04:40.354Z,10.80
2022-11-16T02:07:19.967Z,10.80
2022-11-16T02:10:09.938Z,10.80
2022-11-16T02:13:12.594Z,10.80
2022-11-16T02:15:56.743Z,10.80
2022-11-16T02:18:38.455Z,10.80
2022-11-16T02:21:53.892Z,10.80
2022-11-16T02:24:54.213Z,10.80
2022-11-16T02:27:39.774Z,10.80
2022-11-16T02:30:07.886Z,10.80
2022-11-16T02:32:39.751Z,10.80
2022-11-16T02:35:09.841Z,10.80
2022-11-16T02:37:40.931Z,10.80
2022-11-16T02:40:11.625Z,10.70
2022-11-16T02:42:43.837Z,10.80
2022-11-16T02:45:16.727Z,10.80
2022-11-16T02:47:46.533Z,10.80
2022-11-16T02:50:18.814Z,10.80
2022-11-16T02:52:45.731Z,10.80
2022-11-16T02:55:13.299Z,10.70
2022-11-16T02:57:46.548Z,10.80
2022-11-16T03:00:29.578Z,10.80
2022-11-16T03:03:50.511Z,10.80
2022-11-16T03:06:22.283Z,10.80
2022-11-16T03:09:00.093Z,10.80
2022-11-16T03:11:47.215Z,10.80
2022-11-16T03:14:16.745Z,10.80
2022-11-16T03:16:48.722Z,10.80
2022-11-16T03:19:22.236Z,10.80
2022-11-16T03:22:17.759Z,10.80
2022-11-16T03:24:45.059Z,10.90
2022-11-16T03:27:42.521Z,10.80
2022-11-16T03:30:18.151Z,10.80
2022-11-16T03:33:07.428Z,10.80
2022-11-16T03:35:51.229Z,10.80
2022-11-16T03:38:20.127Z,10.80
2022-11-16T03:40:49.024Z,10.80
2022-11-16T03:43:17.608Z,10.80
2022-11-16T03:45:46.635Z,10.80
2022-11-16T03:48:14.014Z,10.80
2022-11-16T03:50:42.709Z,10.80
2022-11-16T03:53:10.378Z,10.80
2022-11-16T03:55:38.840Z,10.80
2022-11-16T03:58:06.031Z,10.80
2022-11-16T04:00:32.866Z,10.80
2022-11-16T04:02:59.877Z,10.80
2022-11-16T04:05:45.352Z,10.80
2022-11-16T04:08:36.493Z,10.80
2022-11-16T04:11:22.678Z,10.80
2022-11-16T04:14:09.503Z,10.80
2022-11-16T04:16:55.822Z,10.80
2022-11-16T04:19:41.528Z,10.80
2022-11-16T04:22:37.136Z,10.80
2022-11-16T04:25:21.676Z,10.80
2022-11-16T04:28:07.412Z,10.80
2022-11-16T04:30:54.429Z,10.80
2022-11-16T04:33:39.619Z,10.80
2022-11-16T04:36:25.908Z,10.80
2022-11-16T04:38:52.675Z,10.80
2022-11-16T04:41:37.977Z,10.80
2022-11-16T04:44:04.959Z,10.80
2022-11-16T04:46:50.349Z,10.90
2022-11-16T04:49:17.121Z,10.80
2022-11-16T04:51:43.974Z,10.80
2022-11-16T04:54:10.853Z,10.80
2022-11-16T04:56:37.604Z,10.80
2022-11-16T04:59:04.481Z,10.80
2022-11-16T05:01:50.141Z,10.80
2022-11-16T05:04:17.862Z,10.80
2022-11-16T05:06:44.729Z,10.80
2022-11-16T05:09:11.824Z,10.70
2022-11-16T05:11:38.555Z,10.80
2022-11-16T05:14:06.334Z,10.70
2022-11-16T05:16:33.886Z,10.70
2022-11-16T05:19:19.302Z,10.70
2022-11-16T05:21:46.197Z,10.70
2022-11-16T05:24:31.663Z,10.70
2022-11-16T05:26:58.487Z,10.70
2022-11-16T05:29:25.302Z,10.70
2022-11-16T05:31:52.029Z,10.70
2022-11-16T05:34:18.789Z,10.80
2022-11-16T05:36:45.660Z,10.80
2022-11-16T05:39:12.836Z,10.80
2022-11-16T05:41:39.611Z,10.80
2022-11-16T05:44:06.724Z,10.80
2022-11-16T05:46:33.548Z,10.80
2022-11-16T05:49:00.572Z,10.70
2022-11-16T05:51:27.398Z,10.80
2022-11-16T05:53:54.222Z,10.80
2022-11-16T05:56:21.404Z,10.80
2022-11-16T05:58:48.177Z,10.80
2022-11-16T06:01:15.042Z,10.80
2022-11-16T06:03:42.096Z,10.80
2022-11-16T06:06:09.316Z,10.80
2022-11-16T06:08:36.910Z,10.80
2022-11-16T06:11:06.090Z,10.70
2022-11-16T06:13:34.082Z,10.70
2022-11-16T06:16:01.676Z,10.70
2022-11-16T06:18:29.060Z,10.70
2022-11-16T06:20:56.107Z,10.70
2022-11-16T06:23:23.382Z,10.60
2022-11-16T06:25:54.998Z,10.70
2022-11-16T06:28:22.676Z,10.60
2022-11-16T06:30:50.108Z,10.60
2022-11-16T06:33:17.129Z,10.60
2022-11-16T06:35:44.197Z,10.50
2022-11-16T06:38:13.760Z,10.40
2022-11-16T06:40:40.823Z,10.40
2022-11-16T06:43:07.953Z,10.40
2022-11-16T06:45:34.735Z,10.40
2022-11-16T06:48:01.534Z,10.40
2022-11-16T06:50:28.361Z,10.40
2022-11-16T06:52:55.230Z,10.30
2022-11-16T06:55:22.005Z,10.30
2022-11-16T06:57:49.051Z,10.30
2022-11-16T07:00:16.378Z,10.30
2022-11-16T07:02:43.191Z,10.40
2022-11-16T07:05:10.188Z,10.40
2022-11-16T07:07:36.966Z,10.40
2022-11-16T07:10:04.448Z,10.40
2022-11-16T07:12:31.337Z,10.40
2022-11-16T07:14:58.139Z,10.40
2022-11-16T07:17:25.118Z,10.40
2022-11-16T07:19:51.980Z,10.40
2022-11-16T07:22:18.801Z,10.40
2022-11-16T07:24:45.676Z,10.40
2022-11-16T07:27:12.526Z,10.40
2022-11-16T07:29:39.421Z,10.40
2022-11-16T07:32:06.279Z,10.40
2022-11-16T07:34:33.149Z,10.40
2022-11-16T07:36:59.989Z,10.40
2022-11-16T07:39:26.875Z,10.40
2022-11-16T07:41:54.407Z,10.40
2022-11-16T07:44:21.622Z,10.40
2022-11-16T07:46:51.564Z,10.40
2022-11-16T07:49:19.123Z,10.40
2022-11-16T07:51:46.228Z,10.40
2022-11-16T07:58:01.256Z,10.40
2022-11-16T08:00:28.189Z,10.50
2022-11-16T08:07:08.737Z,10.50
2022-11-16T08:09:37.834Z,10.50
2022-11-16T08:22:32.956Z,10.40
2022-11-16T08:24:59.774Z,10.40
2022-11-16T08:27:26.639Z,10.40
2022-11-16T08:29:53.605Z,10.30
2022-11-16T08:32:20.514Z,10.30
2022-11-16T08:34:47.397Z,10.40
2022-11-16T08:37:16.845Z,10.40
2022-11-16T08:39:43.633Z,10.40
2022-11-16T08:42:10.572Z,10.40
2022-11-16T08:44:37.453Z,10.40
2022-11-16T08:47:04.241Z,10.30
2022-11-16T08:49:33.811Z,10.30
2022-11-16T08:52:04.367Z,10.30
2022-11-16T08:54:31.756Z,10.20
2022-11-16T08:56:58.547Z,10.20
2022-11-16T08:59:25.359Z,10.20
2022-11-16T09:01:58.914Z,10.20
2022-11-16T09:04:25.845Z,10.20
2022-11-16T09:06:53.141Z,10.30
2022-11-16T09:09:20.222Z,10.40
2022-11-16T09:11:54.541Z,10.60
2022-11-16T09:14:21.958Z,10.70
2022-11-16T09:16:48.796Z,10.60
2022-11-16T09:19:15.696Z,10.80
2022-11-16T09:21:47.241Z,11.00
2022-11-16T09:24:14.091Z,11.20
2022-11-16T09:26:40.896Z,11.20
2022-11-16T09:29:12.378Z,11.10
2022-11-16T09:31:44.591Z,11.20
2022-11-16T09:34:11.512Z,11.10
2022-11-16T09:36:38.386Z,11.10
2022-11-16T09:42:25.640Z,11.10
2022-11-16T09:45:16.465Z,11.20
2022-11-16T09:47:57.533Z,11.20
2022-11-16T09:50:47.187Z,11.20
2022-11-16T09:53:37.523Z,11.20
2022-11-16T09:56:27.097Z,11.30
2022-11-16T09:59:26.427Z,11.20
2022-11-16T10:02:27.996Z,11.30
2022-11-16T10:05:06.830Z,11.40
2022-11-16T10:07:48.427Z,11.60
2022-11-16T10:10:35.011Z,11.70
2022-11-16T10:13:30.840Z,11.90
2022-11-16T10:16:12.912Z,12.00
2022-11-16T10:18:59.454Z,12.10
2022-11-16T10:21:26.450Z,12.10
2022-11-16T10:23:58.803Z,11.90
2022-11-16T10:26:35.601Z,11.90
2022-11-16T10:29:39.789Z,11.90
2022-11-16T10:32:28.146Z,11.90
2022-11-16T10:35:12.560Z,11.90
2022-11-16T10:37:44.902Z,12.00
2022-11-16T10:40:40.571Z,12.10
2022-11-16T10:43:30.250Z,12.50
2022-11-16T10:46:20.262Z,12.90
2022-11-16T10:49:23.799Z,13.10
2022-11-16T10:51:50.724Z,13.30
2022-11-16T10:54:18.513Z,13.60
2022-11-16T10:56:52.115Z,13.90
2022-11-16T10:59:19.648Z,13.70
2022-11-16T11:01:53.258Z,13.50
2022-11-16T11:04:28.908Z,13.40
2022-11-16T11:06:58.467Z,13.30
2022-11-16T11:09:37.142Z,13.30
2022-11-16T11:12:35.986Z,13.30
2022-11-16T11:15:11.720Z,13.10
2022-11-16T11:17:41.250Z,12.80
2022-11-16T11:20:08.488Z,12.60
2022-11-16T11:23:02.852Z,12.50
2022-11-16T11:25:33.460Z,12.40
2022-11-16T11:28:27.710Z,12.40
2022-11-16T11:31:04.628Z,12.40
2022-11-16T11:33:36.230Z,12.40
2022-11-16T11:36:18.632Z,12.50
2022-11-16T11:39:01.042Z,12.50
2022-11-16T11:41:37.552Z,12.50
2022-11-16T11:44:15.475Z,12.50
2022-11-16T11:47:42.463Z,12.50
2022-11-16T11:49:50.089Z,12.60
2022-11-16T11:52:22.906Z,12.70
2022-11-16T11:54:52.371Z,13.00
2022-11-16T11:57:23.450Z,13.60
2022-11-16T11:59:53.613Z,14.20
2022-11-16T12:03:00.867Z,14.80
2022-11-16T12:05:58.245Z,15.10
2022-11-16T12:08:51.695Z,15.10
2022-11-16T12:11:31.983Z,15.40
2022-11-16T12:14:11.075Z,15.00
2022-11-16T12:17:10.268Z,14.60
2022-11-16T12:20:03.881Z,14.30
2022-11-16T12:22:58.503Z,14.30
2022-11-16T12:25:54.276Z,15.00
2022-11-16T12:28:30.280Z,15.60
2022-11-16T12:31:19.380Z,15.70
2022-11-16T12:34:01.646Z,16.10
2022-11-16T12:36:47.216Z,16.70
2022-11-16T12:39:26.276Z,17.50
2022-11-16T12:41:55.874Z,17.50
2022-11-16T12:44:42.382Z,17.40
2022-11-16T12:47:41.111Z,17.00
2022-11-16T12:50:32.595Z,16.70
2022-11-16T12:53:21.029Z,16.40
2022-11-16T12:56:12.885Z,15.60
2022-11-16T12:59:00.968Z,15.20
2022-11-16T13:01:39.761Z,15.00
2022-11-16T13:04:12.506Z,15.20
2022-11-16T13:06:45.911Z,16.00
2022-11-16T13:09:42.524Z,16.50
2022-11-16T13:12:17.305Z,16.40
2022-11-16T13:14:48.749Z,16.80
2022-11-16T13:17:37.893Z,17.00
2022-11-16T13:20:23.597Z,16.70
2022-11-16T13:23:03.442Z,16.90
2022-11-16T13:25:33.057Z,17.00
2022-11-16T13:28:12.371Z,17.00
2022-11-16T13:30:53.266Z,17.30
2022-11-16T13:33:32.255Z,17.50
2022-11-16T13:35:59.162Z,17.50
2022-11-16T13:38:51.330Z,18.20
2022-11-16T13:41:54.665Z,18.60
2022-11-16T13:44:27.124Z,17.70
2022-11-16T13:47:27.415Z,17.40
2022-11-16T13:50:01.786Z,16.80
2022-11-16T13:55:41.297Z,15.90
2022-11-16T13:58:26.400Z,15.80
2022-11-16T14:01:02.608Z,15.50
2022-11-16T14:03:52.012Z,15.40
2022-11-16T14:06:30.037Z,15.40
2022-11-16T14:08:57.741Z,15.20
2022-11-16T14:11:36.431Z,15.10
2022-11-16T14:14:12.894Z,15.00
2022-11-16T14:16:47.250Z,14.90
2022-11-16T14:19:44.356Z,14.80
2022-11-16T14:22:25.292Z,14.60
2022-11-16T14:25:02.910Z,14.50
2022-11-16T14:27:56.026Z,14.30
2022-11-16T14:30:28.607Z,14.10
2022-11-16T14:32:57.085Z,14.00
2022-11-16T14:35:35.131Z,13.90
2022-11-16T14:38:08.336Z,13.80
2022-11-16T14:40:47.427Z,13.80
2022-11-16T14:43:23.370Z,13.60
2022-11-16T14:45:56.778Z,13.40
2022-11-16T14:48:28.106Z,13.10
2022-11-16T14:51:04.196Z,12.80
2022-11-16T14:53:33.414Z,12.60
2022-11-16T14:56:15.489Z,12.50
2022-11-16T14:58:59.689Z,12.50
2022-11-16T15:01:36.273Z,12.40
2022-11-16T15:04:06.858Z,12.40
2022-11-16T15:06:45.587Z,12.30
2022-11-16T15:09:41.129Z,12.30
2022-11-16T15:12:35.178Z,12.40
2022-11-16T15:15:07.335Z,12.40
2022-11-16T15:17:35.209Z,12.40
2022-11-16T15:20:21.162Z,12.40
2022-11-16T15:22:52.291Z,12.30
2022-11-16T15:25:32.449Z,12.30
2022-11-16T15:28:05.099Z,12.20
2022-11-16T15:30:37.958Z,12.20
2022-11-16T15:33:11.046Z,12.10
2022-11-16T15:35:38.687Z,12.10
2022-11-16T15:38:06.832Z,12.00
2022-11-16T15:40:34.900Z,11.90
2022-11-16T15:43:04.563Z,11.80
2022-11-16T15:45:32.511Z,11.70
2022-11-16T15:48:03.252Z,11.70
2022-11-16T15:50:30.395Z,11.70
2022-11-16T15:52:59.828Z,11.70
2022-11-16T15:55:38.674Z,11.70
2022-11-16T15:58:26.624Z,11.70
2022-11-16T16:00:54.554Z,11.70
2022-11-16T16:03:31.691Z,11.70
2022-11-16T16:05:58.971Z,11.60
2022-11-16T16:08:32.041Z,11.60
2022-11-16T16:11:21.365Z,11.60
2022-11-16T16:14:01.969Z,11.60
2022-11-16T16:16:39.070Z,11.70
2022-11-16T16:19:31.423Z,11.70
2022-11-16T16:21:59.508Z,11.70
2022-11-16T16:24:45.586Z,11.60
2022-11-16T16:27:14.898Z,11.60
2022-11-16T16:29:42.233Z,11.60
2022-11-16T16:32:19.426Z,11.60
2022-11-16T16:34:46.167Z,11.60
2022-11-16T16:37:13.506Z,11.60
2022-11-16T16:39:43.231Z,11.50
2022-11-16T16:42:13.656Z,11.50
2022-11-16T16:44:41.545Z,11.50
2022-11-16T16:47:09.073Z,11.50
2022-11-16T16:49:36.013Z,11.50
2022-11-16T16:52:04.262Z,11.50
2022-11-16T16:54:31.248Z,11.50
2022-11-16T16:56:58.318Z,11.50
2022-11-16T16:59:25.228Z,11.60
2022-11-16T17:01:52.484Z,11.60
2022-11-16T17:04:19.774Z,11.50
2022-11-16T17:06:46.897Z,11.50
2022-11-16T17:09:14.081Z,11.50
2022-11-16T17:11:40.956Z,11.40
2022-11-16T17:14:08.136Z,11.40
2022-11-16T17:16:35.978Z,11.30
2022-11-16T17:19:04.307Z,11.30
2022-11-16T17:21:32.012Z,11.40
2022-11-16T17:23:58.935Z,11.40
2022-11-16T17:26:29.229Z,11.40
2022-11-16T17:28:57.364Z,11.40
2022-11-16T17:31:25.808Z,11.40
2022-11-16T17:33:52.973Z,11.40
2022-11-16T17:36:20.511Z,11.40
2022-11-16T17:38:47.366Z,11.40
2022-11-16T17:41:19.523Z,11.40
2022-11-16T17:43:46.852Z,11.40
2022-11-16T17:46:19.372Z,11.30
2022-11-16T17:48:47.820Z,11.30
2022-11-16T17:51:17.461Z,11.30
2022-11-16T17:53:44.349Z,11.30
2022-11-16T17:56:16.547Z,11.30
2022-11-16T17:58:45.475Z,11.30
2022-11-16T18:01:13.560Z,11.30
2022-11-16T18:03:41.099Z,11.20
2022-11-16T18:06:19.858Z,11.20
2022-11-16T18:08:47.847Z,11.20
2022-11-16T18:11:17.518Z,11.20
2022-11-16T18:13:45.098Z,11.20
2022-11-16T18:16:17.730Z,11.20
2022-11-16T18:18:46.033Z,11.10
2022-11-16T18:21:20.004Z,11.00
2022-11-16T18:23:48.055Z,11.00
2022-11-16T18:26:21.033Z,11.10
2022-11-16T18:28:52.571Z,11.10
2022-11-16T18:31:21.885Z,11.00
2022-11-16T18:33:49.411Z,11.10
2022-11-16T18:36:17.813Z,11.10
2022-11-16T18:38:44.885Z,11.10
2022-11-16T18:41:11.669Z,11.10
2022-11-16T18:43:40.060Z,11.00
2022-11-16T18:46:08.347Z,11.00
2022-11-16T18:48:35.720Z,11.00
2022-11-16T18:51:04.890Z,10.90
2022-11-16T18:53:33.162Z,10.80
2022-11-16T18:56:00.455Z,10.80
2022-11-16T19:01:16.947Z,10.80
2022-11-16T19:03:43.928Z,10.70
2022-11-16T19:06:11.811Z,10.70
2022-11-16T19:08:40.186Z,10.70
2022-11-16T19:11:12.784Z,10.70
2022-11-16T19:13:41.567Z,10.70
2022-11-16T19:16:10.097Z,10.70
2022-11-16T19:18:37.922Z,10.60
2022-11-16T19:21:15.972Z,10.60
2022-11-16T19:23:45.342Z,10.60
2022-11-16T19:26:13.740Z,10.60
2022-11-16T19:28:48.118Z,10.60
2022-11-16T19:31:20.569Z,10.70
2022-11-16T19:33:47.645Z,10.60
2022-11-16T19:36:19.522Z,10.60
2022-11-16T19:38:48.284Z,10.60
2022-11-16T19:41:17.334Z,10.60
2022-11-16T19:43:44.298Z,10.60
2022-11-16T19:46:13.643Z,10.60
2022-11-16T19:48:41.284Z,10.60
2022-11-16T19:51:10.647Z,10.60
2022-11-16T19:53:38.874Z,10.70
2022-11-16T19:56:07.162Z,10.70
2022-11-16T19:58:36.862Z,10.70
2022-11-16T20:01:21.464Z,10.70
2022-11-16T20:03:49.476Z,10.80
2022-11-16T20:06:29.511Z,10.80
2022-11-16T20:09:00.263Z,10.80
2022-11-16T20:11:29.178Z,10.80
2022-11-16T20:13:57.725Z,10.80
2022-11-16T20:16:27.268Z,10.80
2022-11-16T20:18:55.171Z,10.80
2022-11-16T20:21:28.949Z,10.70
2022-11-16T20:24:01.535Z,10.70
2022-11-16T20:26:33.687Z,10.70
2022-11-16T20:29:00.627Z,10.60
2022-11-16T20:31:30.443Z,10.60
2022-11-16T20:34:02.921Z,10.60
2022-11-16T20:36:31.158Z,10.60
2022-11-16T20:38:59.156Z,10.60
2022-11-16T20:41:30.426Z,10.60
2022-11-16T20:43:59.201Z,10.60
2022-11-16T20:46:29.288Z,10.50
2022-11-16T20:48:57.395Z,10.50
2022-11-16T20:51:24.403Z,10.50
2022-11-16T20:53:52.080Z,10.50
2022-11-16T20:56:20.494Z,10.50
2022-11-16T20:58:48.749Z,10.50
2022-11-16T21:01:20.127Z,10.50
2022-11-16T21:03:47.399Z,10.50
2022-11-16T21:06:15.906Z,10.40
2022-11-16T21:08:42.832Z,10.40
2022-11-16T21:11:15.809Z,10.40
2022-11-16T21:14:02.874Z,10.30
2022-11-16T21:16:29.822Z,10.30
2022-11-16T21:18:57.385Z,10.20
2022-11-16T21:21:25.277Z,10.20
2022-11-16T21:23:53.277Z,10.20
2022-11-16T21:26:22.451Z,10.20
2022-11-16T21:28:49.603Z,10.20
2022-11-16T21:31:21.516Z,10.20
2022-11-16T21:33:48.659Z,10.20
2022-11-16T21:36:17.666Z,10.20
2022-11-16T21:38:45.043Z,10.20
2022-11-16T21:41:13.955Z,10.10
2022-11-16T21:43:41.291Z,10.10
2022-11-16T21:46:17.791Z,10.10
2022-11-16T21:48:44.860Z,10.10
2022-11-16T21:51:12.880Z,10.00
2022-11-16T21:53:40.305Z,10.00
2022-11-16T21:56:11.541Z,10.10
2022-11-16T21:58:41.984Z,10.00
2022-11-16T22:01:10.065Z,10.00
2022-11-16T22:03:38.289Z,10.00
2022-11-16T22:06:29.459Z,10.00
2022-11-16T22:08:58.227Z,10.00
2022-11-16T22:11:26.047Z,10.00
2022-11-16T22:13:52.990Z,10.10
2022-11-16T22:16:23.316Z,10.10
2022-11-16T22:18:50.651Z,10.10
2022-11-16T22:21:18.007Z,10.00
2022-11-16T22:23:44.918Z,10.00
2022-11-16T22:26:13.567Z,10.00
2022-11-16T22:28:40.709Z,10.00
2022-11-16T22:31:12.530Z,10.00
2022-11-16T22:33:39.703Z,10.00
2022-11-16T22:36:09.268Z,10.00
2022-11-16T22:38:36.867Z,10.00
2022-11-16T22:41:04.108Z,10.00
2022-11-16T22:43:31.562Z,10.00
2022-11-16T22:46:02.674Z,10.00
2022-11-16T22:48:38.505Z,10.00
2022-11-16T22:51:13.003Z,10.00
2022-11-16T22:53:39.841Z,10.00
2022-11-16T22:56:08.408Z,10.00
2022-11-16T22:58:36.515Z,10.00
2022-11-16T23:01:04.598Z,10.10
2022-11-16T23:03:31.916Z,10.00
2022-11-16T23:05:59.801Z,10.00
2022-11-16T23:08:27.405Z,10.00
2022-11-16T23:11:45.956Z,10.00
2022-11-16T23:14:33.063Z,10.00
2022-11-16T23:17:00.934Z,10.00
2022-11-16T23:19:47.014Z,10.00
2022-11-16T23:22:38.050Z,10.00
2022-11-16T23:25:25.968Z,10.00
2022-11-16T23:27:58.491Z,10.00
2022-11-16T23:30:27.096Z,10.00
2022-11-16T23:32:54.160Z,10.00
2022-11-16T23:35:22.047Z,10.10
2022-11-16T23:37:56.125Z,10.10
2022-11-16T23:40:27.946Z,10.00
2022-11-16T23:43:14.517Z,10.00
2022-11-16T23:45:42.415Z,10.00
2022-11-16T23:48:11.396Z,10.00
2022-11-16T23:50:38.780Z,10.00
2022-11-16T23:53:08.998Z,10.00
2022-11-16T23:55:38.423Z,10.10
2022-11-16T23:58:06.255Z,10.00
